Pagrindinis puslapis
METAR-TAF:

METAR-TAF

Oro uostai :

Kajo Largo del Suras, Kuba

platuma: 21-37N, ilguma: 081-33W, Aukštis: 2 m

Dabartinis oras

Ataskaita buvo paskelbta 58 minutes, ne 17:52 UTC
Vėjas 7 kt iš Pietų, svyruoja nuo Rytų/Pietryčių ir Pietvakarių
Temperatūra 30°C
Drėgmė 70%
Slėgis 1012 hPa
Matomumas: 9000 m
Išsisklaidę debesys ne aukštis 2000 ft

METAR: MUCL 121752Z 18007KT 120V230 9000 SCT020 30/24 Q1012

Laikas: 14:50 (18:50 UTC)

Prognozė

Ataskaita buvo paskelbta 1 valandą ir 50 minutes, ne 17:00 UTC
Prognozė galioja nuo 12 metu 18 UTC su 13 metu 06 UTC
Vėjas 8 kt iš Pietų
Matomumas: 9000 m
Išsisklaidę debesys ne aukštis 2000 ft
Tapsmas
nuo 13 metu 00 UTC su 13 metu 02 UTC
Vėjas 3 kt nuo kintamojo kryptimis

TAF: MUCL 121700Z 1218/1306 18008KT 9000 SCT020 BECMG 1300/1302 VRB03KT

Orai ataskaitas ir orų prognozės (METAR, TAF).

turimą stotys yra geltonos ir raudonos taškus žemėlapyje.

Perkelti pele per norėdami pamatyti stoties vardą.

Tada spustelėkite, norėdami matyti oro stebėjimo ir prognozės.

Norėdami pakeisti žemėlapį: spustelėkite ant žalios mygtukų su juodo kryžiaus žemyn,; žalią mygtuką su brūkšneliu, jei norite nutolinti; arba žalių rodyklių gretimoms žemėlapius.


METAR-TAF: